sensor_id;sensor_type;location;lat;lon;timestamp;P1;durP1;ratioP1;P2;durP2;ratioP2
17091;SDS011;8661;45.700;4.880;2023-11-19T00:01:37;11.90;;;7.23;;
17091;SDS011;8661;45.700;4.880;2023-11-19T00:04:04;13.07;;;7.33;;
17091;SDS011;8661;45.700;4.880;2023-11-19T00:06:31;12.33;;;7.47;;
17091;SDS011;8661;45.700;4.880;2023-11-19T00:08:58;14.07;;;7.43;;
17091;SDS011;8661;45.700;4.880;2023-11-19T00:11:26;11.97;;;7.20;;
17091;SDS011;8661;45.700;4.880;2023-11-19T00:13:53;11.43;;;7.47;;
17091;SDS011;8661;45.700;4.880;2023-11-19T00:16:20;11.43;;;7.43;;
17091;SDS011;8661;45.700;4.880;2023-11-19T00:18:47;10.13;;;6.97;;
17091;SDS011;8661;45.700;4.880;2023-11-19T00:21:15;11.57;;;7.40;;
17091;SDS011;8661;45.700;4.880;2023-11-19T00:23:42;12.67;;;8.53;;
17091;SDS011;8661;45.700;4.880;2023-11-19T00:26:10;12.43;;;8.63;;
17091;SDS011;8661;45.700;4.880;2023-11-19T00:28:38;13.30;;;7.87;;
17091;SDS011;8661;45.700;4.880;2023-11-19T00:31:05;17.50;;;8.50;;
17091;SDS011;8661;45.700;4.880;2023-11-19T00:33:32;15.53;;;9.13;;
17091;SDS011;8661;45.700;4.880;2023-11-19T00:35:59;14.40;;;9.10;;
17091;SDS011;8661;45.700;4.880;2023-11-19T00:38:26;12.33;;;8.17;;
17091;SDS011;8661;45.700;4.880;2023-11-19T00:40:53;13.30;;;8.37;;
17091;SDS011;8661;45.700;4.880;2023-11-19T00:43:21;19.27;;;9.17;;
17091;SDS011;8661;45.700;4.880;2023-11-19T00:45:48;11.60;;;7.90;;
17091;SDS011;8661;45.700;4.880;2023-11-19T00:48:16;14.33;;;9.30;;
17091;SDS011;8661;45.700;4.880;2023-11-19T00:50:43;16.10;;;9.50;;
17091;SDS011;8661;45.700;4.880;2023-11-19T00:53:10;15.13;;;9.30;;
17091;SDS011;8661;45.700;4.880;2023-11-19T00:55:37;14.23;;;9.07;;
17091;SDS011;8661;45.700;4.880;2023-11-19T00:58:04;14.87;;;8.73;;
17091;SDS011;8661;45.700;4.880;2023-11-19T01:00:32;17.40;;;9.03;;
17091;SDS011;8661;45.700;4.880;2023-11-19T01:03:00;16.73;;;8.80;;
17091;SDS011;8661;45.700;4.880;2023-11-19T01:05:27;13.23;;;8.40;;
17091;SDS011;8661;45.700;4.880;2023-11-19T01:07:53;17.43;;;8.60;;
17091;SDS011;8661;45.700;4.880;2023-11-19T01:10:20;18.10;;;8.90;;
17091;SDS011;8661;45.700;4.880;2023-11-19T01:12:47;14.33;;;9.20;;
17091;SDS011;8661;45.700;4.880;2023-11-19T01:15:14;14.17;;;9.43;;
17091;SDS011;8661;45.700;4.880;2023-11-19T01:17:45;12.63;;;8.47;;
17091;SDS011;8661;45.700;4.880;2023-11-19T01:20:12;16.17;;;9.20;;
17091;SDS011;8661;45.700;4.880;2023-11-19T01:22:39;12.97;;;8.33;;
17091;SDS011;8661;45.700;4.880;2023-11-19T01:25:07;13.73;;;9.00;;
17091;SDS011;8661;45.700;4.880;2023-11-19T01:27:34;14.43;;;9.27;;
17091;SDS011;8661;45.700;4.880;2023-11-19T01:30:01;14.83;;;9.43;;
17091;SDS011;8661;45.700;4.880;2023-11-19T01:32:29;13.17;;;8.40;;
17091;SDS011;8661;45.700;4.880;2023-11-19T01:34:57;11.63;;;7.77;;
17091;SDS011;8661;45.700;4.880;2023-11-19T01:37:24;12.87;;;8.27;;
17091;SDS011;8661;45.700;4.880;2023-11-19T01:39:51;13.17;;;7.97;;
17091;SDS011;8661;45.700;4.880;2023-11-19T01:42:18;10.40;;;7.10;;
17091;SDS011;8661;45.700;4.880;2023-11-19T01:44:54;12.10;;;8.10;;
17091;SDS011;8661;45.700;4.880;2023-11-19T01:47:23;12.37;;;6.97;;
17091;SDS011;8661;45.700;4.880;2023-11-19T01:49:51;14.37;;;8.20;;
17091;SDS011;8661;45.700;4.880;2023-11-19T01:52:19;11.73;;;7.37;;
17091;SDS011;8661;45.700;4.880;2023-11-19T01:54:46;14.47;;;8.00;;
17091;SDS011;8661;45.700;4.880;2023-11-19T01:57:14;11.03;;;7.67;;
17091;SDS011;8661;45.700;4.880;2023-11-19T01:59:41;11.43;;;7.53;;
17091;SDS011;8661;45.700;4.880;2023-11-19T02:02:09;12.67;;;8.00;;
17091;SDS011;8661;45.700;4.880;2023-11-19T02:04:37;12.77;;;8.03;;
17091;SDS011;8661;45.700;4.880;2023-11-19T02:07:06;13.80;;;8.20;;
17091;SDS011;8661;45.700;4.880;2023-11-19T02:09:35;12.50;;;7.67;;
17091;SDS011;8661;45.700;4.880;2023-11-19T02:12:03;10.27;;;7.53;;
17091;SDS011;8661;45.700;4.880;2023-11-19T02:14:30;11.93;;;7.37;;
17091;SDS011;8661;45.700;4.880;2023-11-19T02:16:57;11.83;;;7.70;;
17091;SDS011;8661;45.700;4.880;2023-11-19T02:19:24;12.40;;;7.50;;
17091;SDS011;8661;45.700;4.880;2023-11-19T02:21:51;13.93;;;7.50;;
17091;SDS011;8661;45.700;4.880;2023-11-19T02:24:18;12.00;;;7.60;;
17091;SDS011;8661;45.700;4.880;2023-11-19T02:26:51;10.50;;;7.53;;
17091;SDS011;8661;45.700;4.880;2023-11-19T02:29:26;10.17;;;7.43;;
17091;SDS011;8661;45.700;4.880;2023-11-19T02:31:55;10.20;;;7.10;;
17091;SDS011;8661;45.700;4.880;2023-11-19T02:34:22;11.67;;;7.60;;
17091;SDS011;8661;45.700;4.880;2023-11-19T02:36:49;11.77;;;6.83;;
17091;SDS011;8661;45.700;4.880;2023-11-19T02:39:18;11.40;;;7.57;;
17091;SDS011;8661;45.700;4.880;2023-11-19T02:41:46;11.43;;;7.53;;
17091;SDS011;8661;45.700;4.880;2023-11-19T02:44:16;12.53;;;7.27;;
17091;SDS011;8661;45.700;4.880;2023-11-19T02:46:44;11.37;;;6.80;;
17091;SDS011;8661;45.700;4.880;2023-11-19T02:49:13;10.97;;;7.13;;
17091;SDS011;8661;45.700;4.880;2023-11-19T02:51:40;14.87;;;9.00;;
17091;SDS011;8661;45.700;4.880;2023-11-19T02:54:07;10.80;;;7.30;;
17091;SDS011;8661;45.700;4.880;2023-11-19T02:56:35;12.37;;;6.70;;
17091;SDS011;8661;45.700;4.880;2023-11-19T02:59:04;13.13;;;6.90;;
17091;SDS011;8661;45.700;4.880;2023-11-19T03:01:39;9.80;;;6.90;;
17091;SDS011;8661;45.700;4.880;2023-11-19T03:04:10;9.50;;;6.40;;
17091;SDS011;8661;45.700;4.880;2023-11-19T03:06:37;12.73;;;6.47;;
17091;SDS011;8661;45.700;4.880;2023-11-19T03:09:04;8.97;;;6.63;;
17091;SDS011;8661;45.700;4.880;2023-11-19T03:11:32;9.53;;;7.00;;
17091;SDS011;8661;45.700;4.880;2023-11-19T03:13:59;9.80;;;6.80;;
17091;SDS011;8661;45.700;4.880;2023-11-19T03:16:28;12.47;;;6.40;;
17091;SDS011;8661;45.700;4.880;2023-11-19T03:18:54;10.77;;;6.40;;
17091;SDS011;8661;45.700;4.880;2023-11-19T03:21:28;11.93;;;6.40;;
17091;SDS011;8661;45.700;4.880;2023-11-19T03:23:56;10.23;;;6.50;;
17091;SDS011;8661;45.700;4.880;2023-11-19T03:26:23;10.27;;;6.70;;
17091;SDS011;8661;45.700;4.880;2023-11-19T03:28:50;10.13;;;6.27;;
17091;SDS011;8661;45.700;4.880;2023-11-19T03:31:17;10.23;;;6.27;;
17091;SDS011;8661;45.700;4.880;2023-11-19T03:33:44;8.70;;;5.90;;
17091;SDS011;8661;45.700;4.880;2023-11-19T03:36:11;8.70;;;6.20;;
17091;SDS011;8661;45.700;4.880;2023-11-19T03:38:40;9.90;;;6.20;;
17091;SDS011;8661;45.700;4.880;2023-11-19T03:41:10;11.03;;;6.10;;
17091;SDS011;8661;45.700;4.880;2023-11-19T03:43:37;16.00;;;6.47;;
17091;SDS011;8661;45.700;4.880;2023-11-19T03:46:05;12.60;;;6.27;;
17091;SDS011;8661;45.700;4.880;2023-11-19T03:48:41;8.50;;;5.80;;
17091;SDS011;8661;45.700;4.880;2023-11-19T03:51:08;8.23;;;5.70;;
17091;SDS011;8661;45.700;4.880;2023-11-19T03:53:36;10.20;;;5.60;;
17091;SDS011;8661;45.700;4.880;2023-11-19T03:56:05;7.73;;;4.67;;
17091;SDS011;8661;45.700;4.880;2023-11-19T03:58:34;8.43;;;5.60;;
17091;SDS011;8661;45.700;4.880;2023-11-19T04:01:03;9.60;;;5.17;;
17091;SDS011;8661;45.700;4.880;2023-11-19T04:03:30;10.57;;;5.33;;
17091;SDS011;8661;45.700;4.880;2023-11-19T04:05:57;7.27;;;5.13;;
17091;SDS011;8661;45.700;4.880;2023-11-19T04:08:24;7.93;;;5.27;;
17091;SDS011;8661;45.700;4.880;2023-11-19T04:10:51;8.30;;;5.50;;
17091;SDS011;8661;45.700;4.880;2023-11-19T04:13:19;11.13;;;5.67;;
17091;SDS011;8661;45.700;4.880;2023-11-19T04:15:47;11.53;;;6.17;;
17091;SDS011;8661;45.700;4.880;2023-11-19T04:18:15;17.30;;;5.17;;
17091;SDS011;8661;45.700;4.880;2023-11-19T04:20:42;9.43;;;5.83;;
17091;SDS011;8661;45.700;4.880;2023-11-19T04:23:09;9.00;;;5.60;;
17091;SDS011;8661;45.700;4.880;2023-11-19T04:25:36;8.47;;;5.77;;
17091;SDS011;8661;45.700;4.880;2023-11-19T04:28:03;11.20;;;5.93;;
17091;SDS011;8661;45.700;4.880;2023-11-19T04:30:31;7.90;;;5.47;;
17091;SDS011;8661;45.700;4.880;2023-11-19T04:33:00;8.57;;;4.87;;
17091;SDS011;8661;45.700;4.880;2023-11-19T04:35:27;6.80;;;5.10;;
17091;SDS011;8661;45.700;4.880;2023-11-19T04:37:55;7.73;;;5.00;;
17091;SDS011;8661;45.700;4.880;2023-11-19T04:40:23;6.47;;;4.43;;
17091;SDS011;8661;45.700;4.880;2023-11-19T04:42:50;11.30;;;5.03;;
17091;SDS011;8661;45.700;4.880;2023-11-19T04:45:18;7.20;;;4.97;;
17091;SDS011;8661;45.700;4.880;2023-11-19T04:47:46;9.13;;;5.37;;
17091;SDS011;8661;45.700;4.880;2023-11-19T04:50:14;7.70;;;4.90;;
17091;SDS011;8661;45.700;4.880;2023-11-19T04:52:41;10.33;;;5.70;;
17091;SDS011;8661;45.700;4.880;2023-11-19T04:55:10;7.57;;;5.27;;
17091;SDS011;8661;45.700;4.880;2023-11-19T04:57:39;7.47;;;5.40;;
17091;SDS011;8661;45.700;4.880;2023-11-19T05:00:06;9.50;;;5.43;;
17091;SDS011;8661;45.700;4.880;2023-11-19T05:02:35;7.90;;;5.53;;
17091;SDS011;8661;45.700;4.880;2023-11-19T05:05:04;8.03;;;5.43;;
17091;SDS011;8661;45.700;4.880;2023-11-19T05:07:32;9.90;;;5.83;;
17091;SDS011;8661;45.700;4.880;2023-11-19T05:09:59;10.03;;;5.73;;
17091;SDS011;8661;45.700;4.880;2023-11-19T05:12:26;7.83;;;5.53;;
17091;SDS011;8661;45.700;4.880;2023-11-19T05:14:53;8.60;;;5.33;;
17091;SDS011;8661;45.700;4.880;2023-11-19T05:17:20;8.07;;;5.10;;
17091;SDS011;8661;45.700;4.880;2023-11-19T05:19:47;8.37;;;5.00;;
17091;SDS011;8661;45.700;4.880;2023-11-19T05:22:15;8.13;;;4.97;;
17091;SDS011;8661;45.700;4.880;2023-11-19T05:24:43;8.87;;;4.90;;
17091;SDS011;8661;45.700;4.880;2023-11-19T05:27:11;7.47;;;4.67;;
17091;SDS011;8661;45.700;4.880;2023-11-19T05:29:38;6.57;;;5.00;;
17091;SDS011;8661;45.700;4.880;2023-11-19T05:32:06;7.77;;;5.10;;
17091;SDS011;8661;45.700;4.880;2023-11-19T05:34:33;7.53;;;4.70;;
17091;SDS011;8661;45.700;4.880;2023-11-19T05:37:00;8.27;;;5.00;;
17091;SDS011;8661;45.700;4.880;2023-11-19T05:39:29;5.93;;;4.30;;
17091;SDS011;8661;45.700;4.880;2023-11-19T05:41:55;8.80;;;5.27;;
17091;SDS011;8661;45.700;4.880;2023-11-19T05:44:22;10.90;;;5.27;;
17091;SDS011;8661;45.700;4.880;2023-11-19T05:46:49;11.07;;;5.03;;
17091;SDS011;8661;45.700;4.880;2023-11-19T05:49:16;14.43;;;5.50;;
17091;SDS011;8661;45.700;4.880;2023-11-19T05:51:43;6.87;;;4.73;;
17091;SDS011;8661;45.700;4.880;2023-11-19T05:54:11;7.63;;;5.07;;
17091;SDS011;8661;45.700;4.880;2023-11-19T05:56:40;8.03;;;4.80;;
17091;SDS011;8661;45.700;4.880;2023-11-19T05:59:07;8.73;;;5.10;;
17091;SDS011;8661;45.700;4.880;2023-11-19T06:01:40;7.70;;;5.13;;
17091;SDS011;8661;45.700;4.880;2023-11-19T06:04:07;7.77;;;5.27;;
17091;SDS011;8661;45.700;4.880;2023-11-19T06:06:35;6.53;;;5.00;;
17091;SDS011;8661;45.700;4.880;2023-11-19T06:09:02;8.37;;;4.63;;
17091;SDS011;8661;45.700;4.880;2023-11-19T06:11:31;7.83;;;5.00;;
17091;SDS011;8661;45.700;4.880;2023-11-19T06:14:00;6.17;;;4.57;;
17091;SDS011;8661;45.700;4.880;2023-11-19T06:16:26;9.30;;;5.47;;
17091;SDS011;8661;45.700;4.880;2023-11-19T06:18:53;7.87;;;4.70;;
17091;SDS011;8661;45.700;4.880;2023-11-19T06:21:20;8.63;;;4.80;;
17091;SDS011;8661;45.700;4.880;2023-11-19T06:23:47;6.53;;;4.57;;
17091;SDS011;8661;45.700;4.880;2023-11-19T06:26:16;6.70;;;4.90;;
17091;SDS011;8661;45.700;4.880;2023-11-19T06:28:43;7.60;;;4.93;;
17091;SDS011;8661;45.700;4.880;2023-11-19T06:31:12;9.13;;;5.50;;
17091;SDS011;8661;45.700;4.880;2023-11-19T06:33:41;8.43;;;5.03;;
17091;SDS011;8661;45.700;4.880;2023-11-19T06:36:08;8.50;;;5.60;;
17091;SDS011;8661;45.700;4.880;2023-11-19T06:38:35;8.60;;;5.03;;
17091;SDS011;8661;45.700;4.880;2023-11-19T06:41:05;10.10;;;5.03;;
17091;SDS011;8661;45.700;4.880;2023-11-19T06:43:33;9.20;;;5.60;;
17091;SDS011;8661;45.700;4.880;2023-11-19T06:46:00;8.80;;;5.20;;
17091;SDS011;8661;45.700;4.880;2023-11-19T06:48:29;7.27;;;4.67;;
17091;SDS011;8661;45.700;4.880;2023-11-19T06:50:57;8.80;;;5.30;;
17091;SDS011;8661;45.700;4.880;2023-11-19T06:53:24;11.17;;;5.00;;
17091;SDS011;8661;45.700;4.880;2023-11-19T06:55:53;8.67;;;5.10;;
17091;SDS011;8661;45.700;4.880;2023-11-19T06:58:20;14.43;;;5.83;;
17091;SDS011;8661;45.700;4.880;2023-11-19T07:00:47;8.37;;;4.70;;
17091;SDS011;8661;45.700;4.880;2023-11-19T07:03:14;7.10;;;4.60;;
17091;SDS011;8661;45.700;4.880;2023-11-19T07:05:43;10.03;;;5.43;;
17091;SDS011;8661;45.700;4.880;2023-11-19T07:08:10;8.20;;;5.07;;
17091;SDS011;8661;45.700;4.880;2023-11-19T07:10:37;6.93;;;4.47;;
17091;SDS011;8661;45.700;4.880;2023-11-19T07:13:04;8.53;;;4.73;;
17091;SDS011;8661;45.700;4.880;2023-11-19T07:15:31;8.90;;;4.80;;
17091;SDS011;8661;45.700;4.880;2023-11-19T07:17:58;6.63;;;4.40;;
17091;SDS011;8661;45.700;4.880;2023-11-19T07:20:26;8.03;;;5.10;;
17091;SDS011;8661;45.700;4.880;2023-11-19T07:22:54;7.60;;;4.90;;
17091;SDS011;8661;45.700;4.880;2023-11-19T07:25:22;10.13;;;4.47;;
17091;SDS011;8661;45.700;4.880;2023-11-19T07:27:49;7.43;;;4.50;;
17091;SDS011;8661;45.700;4.880;2023-11-19T07:30:18;6.37;;;4.43;;
17091;SDS011;8661;45.700;4.880;2023-11-19T07:32:45;8.33;;;4.60;;
17091;SDS011;8661;45.700;4.880;2023-11-19T07:35:12;9.07;;;4.57;;
17091;SDS011;8661;45.700;4.880;2023-11-19T07:37:39;8.03;;;4.87;;
17091;SDS011;8661;45.700;4.880;2023-11-19T07:40:08;9.83;;;4.97;;
17091;SDS011;8661;45.700;4.880;2023-11-19T07:42:36;9.60;;;5.00;;
17091;SDS011;8661;45.700;4.880;2023-11-19T07:45:03;8.40;;;5.37;;
17091;SDS011;8661;45.700;4.880;2023-11-19T07:47:32;9.33;;;5.00;;
17091;SDS011;8661;45.700;4.880;2023-11-19T07:50:02;6.17;;;4.57;;
17091;SDS011;8661;45.700;4.880;2023-11-19T07:52:32;6.93;;;4.67;;
17091;SDS011;8661;45.700;4.880;2023-11-19T07:54:59;8.27;;;4.17;;
17091;SDS011;8661;45.700;4.880;2023-11-19T07:57:29;9.53;;;5.40;;
17091;SDS011;8661;45.700;4.880;2023-11-19T07:59:57;8.27;;;4.90;;
17091;SDS011;8661;45.700;4.880;2023-11-19T08:02:26;6.07;;;4.27;;
17091;SDS011;8661;45.700;4.880;2023-11-19T08:04:54;7.33;;;4.53;;
17091;SDS011;8661;45.700;4.880;2023-11-19T08:07:21;6.33;;;4.83;;
17091;SDS011;8661;45.700;4.880;2023-11-19T08:12:49;6.23;;;4.33;;
17091;SDS011;8661;45.700;4.880;2023-11-19T08:15:16;5.20;;;4.23;;
17091;SDS011;8661;45.700;4.880;2023-11-19T08:17:44;9.47;;;4.40;;
17091;SDS011;8661;45.700;4.880;2023-11-19T08:20:12;5.93;;;3.97;;
17091;SDS011;8661;45.700;4.880;2023-11-19T08:22:40;5.73;;;4.33;;
17091;SDS011;8661;45.700;4.880;2023-11-19T08:25:08;6.60;;;3.87;;
17091;SDS011;8661;45.700;4.880;2023-11-19T08:27:36;6.50;;;4.10;;
17091;SDS011;8661;45.700;4.880;2023-11-19T08:30:07;6.83;;;4.17;;
17091;SDS011;8661;45.700;4.880;2023-11-19T08:32:34;6.13;;;4.50;;
17091;SDS011;8661;45.700;4.880;2023-11-19T08:35:01;6.90;;;4.20;;
17091;SDS011;8661;45.700;4.880;2023-11-19T08:37:28;5.73;;;4.30;;
17091;SDS011;8661;45.700;4.880;2023-11-19T08:39:56;6.80;;;4.33;;
17091;SDS011;8661;45.700;4.880;2023-11-19T08:42:23;4.90;;;3.90;;
17091;SDS011;8661;45.700;4.880;2023-11-19T08:44:50;5.87;;;3.87;;
17091;SDS011;8661;45.700;4.880;2023-11-19T08:47:21;7.13;;;3.70;;
17091;SDS011;8661;45.700;4.880;2023-11-19T08:49:50;5.47;;;3.53;;
17091;SDS011;8661;45.700;4.880;2023-11-19T08:52:20;6.03;;;4.10;;
17091;SDS011;8661;45.700;4.880;2023-11-19T08:54:47;6.17;;;3.83;;
17091;SDS011;8661;45.700;4.880;2023-11-19T08:57:14;6.10;;;4.00;;
17091;SDS011;8661;45.700;4.880;2023-11-19T08:59:41;6.73;;;4.20;;
17091;SDS011;8661;45.700;4.880;2023-11-19T09:02:08;3.90;;;3.53;;
17091;SDS011;8661;45.700;4.880;2023-11-19T09:04:37;8.43;;;4.13;;
17091;SDS011;8661;45.700;4.880;2023-11-19T09:07:03;8.30;;;3.90;;
17091;SDS011;8661;45.700;4.880;2023-11-19T09:09:31;5.97;;;3.93;;
17091;SDS011;8661;45.700;4.880;2023-11-19T09:12:00;5.50;;;3.73;;
17091;SDS011;8661;45.700;4.880;2023-11-19T09:14:28;5.33;;;3.87;;
17091;SDS011;8661;45.700;4.880;2023-11-19T09:16:55;5.70;;;3.97;;
17091;SDS011;8661;45.700;4.880;2023-11-19T09:19:23;5.37;;;3.60;;
17091;SDS011;8661;45.700;4.880;2023-11-19T09:21:52;7.53;;;3.93;;
17091;SDS011;8661;45.700;4.880;2023-11-19T09:24:19;5.87;;;3.67;;
17091;SDS011;8661;45.700;4.880;2023-11-19T09:26:47;5.93;;;3.73;;
17091;SDS011;8661;45.700;4.880;2023-11-19T09:29:15;7.13;;;3.80;;
17091;SDS011;8661;45.700;4.880;2023-11-19T09:31:42;5.73;;;3.70;;
17091;SDS011;8661;45.700;4.880;2023-11-19T09:34:10;4.47;;;3.67;;
17091;SDS011;8661;45.700;4.880;2023-11-19T09:36:45;6.80;;;3.80;;
17091;SDS011;8661;45.700;4.880;2023-11-19T09:39:25;5.37;;;3.70;;
17091;SDS011;8661;45.700;4.880;2023-11-19T09:41:54;6.07;;;3.67;;
17091;SDS011;8661;45.700;4.880;2023-11-19T09:44:22;8.90;;;3.40;;
17091;SDS011;8661;45.700;4.880;2023-11-19T09:46:50;6.87;;;4.30;;
17091;SDS011;8661;45.700;4.880;2023-11-19T09:49:20;5.97;;;3.83;;
17091;SDS011;8661;45.700;4.880;2023-11-19T09:51:49;6.03;;;3.80;;
17091;SDS011;8661;45.700;4.880;2023-11-19T09:54:16;7.22;;;4.20;;
17091;SDS011;8661;45.700;4.880;2023-11-19T09:56:44;5.73;;;4.30;;
17091;SDS011;8661;45.700;4.880;2023-11-19T09:59:13;5.97;;;4.00;;
17091;SDS011;8661;45.700;4.880;2023-11-19T10:01:40;6.83;;;4.20;;
17091;SDS011;8661;45.700;4.880;2023-11-19T10:04:08;8.90;;;5.23;;
17091;SDS011;8661;45.700;4.880;2023-11-19T10:06:38;9.23;;;3.80;;
17091;SDS011;8661;45.700;4.880;2023-11-19T10:09:05;7.70;;;4.07;;
17091;SDS011;8661;45.700;4.880;2023-11-19T10:11:31;5.90;;;3.57;;
17091;SDS011;8661;45.700;4.880;2023-11-19T10:14:00;7.63;;;4.30;;
17091;SDS011;8661;45.700;4.880;2023-11-19T10:16:30;6.43;;;3.80;;
17091;SDS011;8661;45.700;4.880;2023-11-19T10:18:57;6.23;;;3.77;;
17091;SDS011;8661;45.700;4.880;2023-11-19T10:21:24;6.83;;;3.67;;
17091;SDS011;8661;45.700;4.880;2023-11-19T10:23:53;6.23;;;3.67;;
17091;SDS011;8661;45.700;4.880;2023-11-19T10:26:22;12.90;;;3.80;;
17091;SDS011;8661;45.700;4.880;2023-11-19T10:28:49;7.60;;;3.83;;
17091;SDS011;8661;45.700;4.880;2023-11-19T10:31:18;7.20;;;3.30;;
17091;SDS011;8661;45.700;4.880;2023-11-19T10:33:49;3.90;;;3.50;;
17091;SDS011;8661;45.700;4.880;2023-11-19T10:36:17;5.53;;;3.33;;
17091;SDS011;8661;45.700;4.880;2023-11-19T10:38:51;4.57;;;3.60;;
17091;SDS011;8661;45.700;4.880;2023-11-19T10:41:27;7.10;;;4.03;;
17091;SDS011;8661;45.700;4.880;2023-11-19T10:43:55;7.97;;;3.80;;
17091;SDS011;8661;45.700;4.880;2023-11-19T10:46:24;7.10;;;3.63;;
17091;SDS011;8661;45.700;4.880;2023-11-19T10:49:03;6.90;;;3.07;;
17091;SDS011;8661;45.700;4.880;2023-11-19T10:51:30;6.13;;;3.57;;
17091;SDS011;8661;45.700;4.880;2023-11-19T10:53:59;7.03;;;4.17;;
17091;SDS011;8661;45.700;4.880;2023-11-19T10:56:30;11.50;;;4.00;;
17091;SDS011;8661;45.700;4.880;2023-11-19T10:58:59;5.50;;;4.10;;
17091;SDS011;8661;45.700;4.880;2023-11-19T11:01:27;5.53;;;4.00;;
17091;SDS011;8661;45.700;4.880;2023-11-19T11:03:59;7.23;;;4.20;;
17091;SDS011;8661;45.700;4.880;2023-11-19T11:06:28;5.60;;;3.77;;
17091;SDS011;8661;45.700;4.880;2023-11-19T11:08:56;5.27;;;3.53;;
17091;SDS011;8661;45.700;4.880;2023-11-19T11:11:23;5.47;;;3.13;;
17091;SDS011;8661;45.700;4.880;2023-11-19T11:13:51;6.87;;;3.40;;
17091;SDS011;8661;45.700;4.880;2023-11-19T11:16:21;5.30;;;3.23;;
17091;SDS011;8661;45.700;4.880;2023-11-19T11:18:51;7.73;;;3.87;;
17091;SDS011;8661;45.700;4.880;2023-11-19T11:21:20;4.63;;;3.20;;
17091;SDS011;8661;45.700;4.880;2023-11-19T11:24:09;4.20;;;3.27;;
17091;SDS011;8661;45.700;4.880;2023-11-19T11:27:12;5.80;;;3.57;;
17091;SDS011;8661;45.700;4.880;2023-11-19T11:30:19;4.43;;;3.10;;
17091;SDS011;8661;45.700;4.880;2023-11-19T11:32:54;5.23;;;3.70;;
17091;SDS011;8661;45.700;4.880;2023-11-19T11:35:33;5.83;;;3.17;;
17091;SDS011;8661;45.700;4.880;2023-11-19T11:38:09;6.00;;;4.13;;
17091;SDS011;8661;45.700;4.880;2023-11-19T11:40:36;7.90;;;4.43;;
17091;SDS011;8661;45.700;4.880;2023-11-19T11:43:03;8.33;;;5.17;;
17091;SDS011;8661;45.700;4.880;2023-11-19T11:45:37;7.23;;;4.47;;
17091;SDS011;8661;45.700;4.880;2023-11-19T11:48:11;4.97;;;3.60;;
17091;SDS011;8661;45.700;4.880;2023-11-19T11:50:51;12.93;;;6.40;;
17091;SDS011;8661;45.700;4.880;2023-11-19T11:53:20;7.23;;;3.63;;
17091;SDS011;8661;45.700;4.880;2023-11-19T11:55:52;4.27;;;3.07;;
17091;SDS011;8661;45.700;4.880;2023-11-19T11:58:29;5.57;;;3.23;;
17091;SDS011;8661;45.700;4.880;2023-11-19T12:01:01;4.70;;;3.47;;
17091;SDS011;8661;45.700;4.880;2023-11-19T12:03:30;5.53;;;3.73;;
17091;SDS011;8661;45.700;4.880;2023-11-19T12:06:02;6.03;;;3.33;;
17091;SDS011;8661;45.700;4.880;2023-11-19T12:08:29;4.83;;;3.43;;
17091;SDS011;8661;45.700;4.880;2023-11-19T12:10:57;7.57;;;3.50;;
17091;SDS011;8661;45.700;4.880;2023-11-19T12:13:25;4.37;;;3.17;;
17091;SDS011;8661;45.700;4.880;2023-11-19T12:16:12;5.00;;;3.27;;
17091;SDS011;8661;45.700;4.880;2023-11-19T12:18:42;4.77;;;3.03;;
17091;SDS011;8661;45.700;4.880;2023-11-19T12:21:11;5.53;;;3.67;;
17091;SDS011;8661;45.700;4.880;2023-11-19T12:23:53;6.13;;;4.23;;
17091;SDS011;8661;45.700;4.880;2023-11-19T12:26:21;10.43;;;4.10;;
17091;SDS011;8661;45.700;4.880;2023-11-19T12:28:58;7.97;;;4.20;;
17091;SDS011;8661;45.700;4.880;2023-11-19T12:31:25;7.63;;;4.50;;
17091;SDS011;8661;45.700;4.880;2023-11-19T12:33:52;7.13;;;4.40;;
17091;SDS011;8661;45.700;4.880;2023-11-19T12:36:21;6.83;;;4.73;;
17091;SDS011;8661;45.700;4.880;2023-11-19T12:38:48;7.17;;;4.27;;
17091;SDS011;8661;45.700;4.880;2023-11-19T12:41:16;6.03;;;3.80;;
17091;SDS011;8661;45.700;4.880;2023-11-19T12:43:45;4.30;;;3.37;;
17091;SDS011;8661;45.700;4.880;2023-11-19T12:46:19;5.90;;;3.77;;
17091;SDS011;8661;45.700;4.880;2023-11-19T12:48:46;5.73;;;3.10;;
17091;SDS011;8661;45.700;4.880;2023-11-19T12:51:13;7.60;;;4.13;;
17091;SDS011;8661;45.700;4.880;2023-11-19T12:53:48;6.53;;;3.50;;
17091;SDS011;8661;45.700;4.880;2023-11-19T12:56:18;5.60;;;3.43;;
17091;SDS011;8661;45.700;4.880;2023-11-19T12:58:45;6.20;;;3.63;;
17091;SDS011;8661;45.700;4.880;2023-11-19T13:01:15;6.80;;;3.67;;
17091;SDS011;8661;45.700;4.880;2023-11-19T13:03:44;3.70;;;3.00;;
17091;SDS011;8661;45.700;4.880;2023-11-19T13:06:12;5.80;;;3.80;;
17091;SDS011;8661;45.700;4.880;2023-11-19T13:08:41;4.87;;;3.30;;
17091;SDS011;8661;45.700;4.880;2023-11-19T13:11:11;6.40;;;3.53;;
17091;SDS011;8661;45.700;4.880;2023-11-19T13:13:54;5.57;;;3.43;;
17091;SDS011;8661;45.700;4.880;2023-11-19T13:16:21;6.33;;;4.40;;
17091;SDS011;8661;45.700;4.880;2023-11-19T13:18:48;5.37;;;3.90;;
17091;SDS011;8661;45.700;4.880;2023-11-19T13:21:18;6.17;;;3.90;;
17091;SDS011;8661;45.700;4.880;2023-11-19T13:23:45;6.13;;;4.03;;
17091;SDS011;8661;45.700;4.880;2023-11-19T13:26:13;5.17;;;3.53;;
17091;SDS011;8661;45.700;4.880;2023-11-19T13:28:40;7.43;;;3.73;;
17091;SDS011;8661;45.700;4.880;2023-11-19T13:31:07;6.80;;;3.53;;
17091;SDS011;8661;45.700;4.880;2023-11-19T13:33:35;5.67;;;3.33;;
17091;SDS011;8661;45.700;4.880;2023-11-19T13:36:02;5.20;;;3.63;;
17091;SDS011;8661;45.700;4.880;2023-11-19T13:38:32;4.63;;;3.23;;
17091;SDS011;8661;45.700;4.880;2023-11-19T13:41:00;5.70;;;3.40;;
17091;SDS011;8661;45.700;4.880;2023-11-19T13:43:29;6.77;;;3.87;;
17091;SDS011;8661;45.700;4.880;2023-11-19T13:45:56;5.17;;;3.90;;
17091;SDS011;8661;45.700;4.880;2023-11-19T13:48:23;5.90;;;3.83;;
17091;SDS011;8661;45.700;4.880;2023-11-19T13:50:51;4.97;;;3.53;;
17091;SDS011;8661;45.700;4.880;2023-11-19T13:53:19;5.87;;;3.67;;
17091;SDS011;8661;45.700;4.880;2023-11-19T13:55:46;5.60;;;3.47;;
17091;SDS011;8661;45.700;4.880;2023-11-19T13:58:13;5.47;;;3.80;;
17091;SDS011;8661;45.700;4.880;2023-11-19T14:00:42;7.30;;;3.80;;
17091;SDS011;8661;45.700;4.880;2023-11-19T14:03:09;4.67;;;3.70;;
17091;SDS011;8661;45.700;4.880;2023-11-19T14:05:36;14.63;;;4.70;;
17091;SDS011;8661;45.700;4.880;2023-11-19T14:08:03;6.97;;;3.70;;
17091;SDS011;8661;45.700;4.880;2023-11-19T14:10:36;12.07;;;3.83;;
17091;SDS011;8661;45.700;4.880;2023-11-19T14:13:05;6.27;;;3.50;;
17091;SDS011;8661;45.700;4.880;2023-11-19T14:15:32;7.53;;;3.97;;
17091;SDS011;8661;45.700;4.880;2023-11-19T14:18:00;10.50;;;4.47;;
17091;SDS011;8661;45.700;4.880;2023-11-19T14:20:28;6.53;;;3.27;;
17091;SDS011;8661;45.700;4.880;2023-11-19T14:22:54;5.27;;;3.90;;
17091;SDS011;8661;45.700;4.880;2023-11-19T14:25:22;8.93;;;4.37;;
17091;SDS011;8661;45.700;4.880;2023-11-19T14:27:49;6.13;;;4.33;;
17091;SDS011;8661;45.700;4.880;2023-11-19T14:30:16;5.80;;;4.17;;
17091;SDS011;8661;45.700;4.880;2023-11-19T14:32:43;8.73;;;4.53;;
17091;SDS011;8661;45.700;4.880;2023-11-19T14:35:12;6.70;;;4.33;;
17091;SDS011;8661;45.700;4.880;2023-11-19T14:37:39;5.60;;;4.10;;
17091;SDS011;8661;45.700;4.880;2023-11-19T14:40:06;5.27;;;4.00;;
17091;SDS011;8661;45.700;4.880;2023-11-19T14:42:36;6.70;;;3.77;;
17091;SDS011;8661;45.700;4.880;2023-11-19T14:45:04;6.03;;;4.43;;
17091;SDS011;8661;45.700;4.880;2023-11-19T14:47:31;6.43;;;4.77;;
17091;SDS011;8661;45.700;4.880;2023-11-19T14:49:58;8.93;;;5.27;;
17091;SDS011;8661;45.700;4.880;2023-11-19T14:52:27;8.93;;;5.37;;
17091;SDS011;8661;45.700;4.880;2023-11-19T14:54:54;9.70;;;5.00;;
17091;SDS011;8661;45.700;4.880;2023-11-19T14:57:21;6.73;;;4.80;;
17091;SDS011;8661;45.700;4.880;2023-11-19T14:59:48;8.43;;;5.30;;
17091;SDS011;8661;45.700;4.880;2023-11-19T15:02:17;9.77;;;5.73;;
17091;SDS011;8661;45.700;4.880;2023-11-19T15:04:44;8.57;;;5.67;;
17091;SDS011;8661;45.700;4.880;2023-11-19T15:07:11;11.77;;;5.73;;
17091;SDS011;8661;45.700;4.880;2023-11-19T15:09:39;9.87;;;5.90;;